Time;durP1;ratioP1;P1;durP2;ratioP2;P2;SDS_P1;SDS_P2;PMS_P1;PMS_P2;Temp;Humidity;BMP_temperature;BMP_pressure;BME280_temperature;BME280_humidity;BME280_pressure;Samples;Min_cycle;Max_cycle;Signal;HPM_P1;HPM_P2
2022/07/13 00:00:28;;;;;;;;;5.00;5.00;;;;;34.50;23.08;101696.63;5110376;27;45405;-78
2022/07/13 00:02:54;;;;;;;;;4.50;4.50;;;;;34.43;22.58;101691.22;5111185;27;45306;-78
2022/07/13 00:05:20;;;;;;;;;5.75;4.00;;;;;34.33;22.69;101698.38;5120367;27;45448;-78
2022/07/13 00:07:45;;;;;;;;;6.25;4.00;;;;;34.34;22.87;101695.41;5101819;27;45492;-79
2022/07/13 00:10:11;;;;;;;;;8.00;6.00;;;;;34.31;22.61;101689.56;5117544;27;45215;-78
2022/07/13 00:12:37;;;;;;;;;7.50;5.00;;;;;34.35;22.79;101702.56;5107709;27;46163;-78
2022/07/13 00:15:04;;;;;;;;;5.00;5.00;;;;;34.41;22.98;101706.28;5116199;27;45681;-78
2022/07/13 00:17:29;;;;;;;;;4.25;4.25;;;;;34.15;23.22;101696.53;5117731;27;45492;-78
2022/07/13 00:19:54;;;;;;;;;5.25;5.25;;;;;34.10;22.93;101697.25;5117786;27;45701;-79
2022/07/13 00:22:20;;;;;;;;;5.50;4.25;;;;;34.14;23.18;101698.44;5109837;27;45421;-78
2022/07/13 00:24:45;;;;;;;;;5.00;5.00;;;;;34.20;23.00;101698.59;5111267;27;45433;-78
2022/07/13 00:27:10;;;;;;;;;5.50;5.50;;;;;34.16;22.91;101688.06;5119269;27;45490;-79
2022/07/13 00:29:36;;;;;;;;;4.25;4.25;;;;;34.14;23.24;101698.44;5119231;27;45509;-78
2022/07/13 00:32:01;;;;;;;;;4.25;4.25;;;;;34.05;23.30;101682.59;5105212;27;45484;-78
2022/07/13 00:34:26;;;;;;;;;7.00;5.25;;;;;34.03;23.22;101684.75;5119722;27;45306;-78
2022/07/13 00:36:52;;;;;;;;;8.00;5.00;;;;;34.04;23.57;101691.91;5121041;27;45811;-78
2022/07/13 00:39:17;;;;;;;;;6.50;5.50;;;;;34.02;23.30;101688.53;5123882;27;45530;-78
2022/07/13 00:41:47;;;;;;;;;9.75;8.75;;;;;34.09;23.50;101687.38;5122159;27;45246;-78
2022/07/13 00:44:13;;;;;;;;;9.50;6.50;;;;;34.07;23.11;101686.75;5122654;27;45530;-78
2022/07/13 00:46:43;;;;;;;;;12.25;11.00;;;;;34.02;23.39;101681.16;5122872;27;45322;-78
2022/07/13 00:49:10;;;;;;;;;28.75;23.00;;;;;34.05;23.52;101677.13;5123045;27;45231;-78
2022/07/13 00:51:37;;;;;;;;;27.50;21.25;;;;;34.02;23.81;101680.31;5120877;27;46382;-79
2022/07/13 00:54:03;;;;;;;;;31.00;24.00;;;;;34.01;23.79;101679.50;5122490;27;45580;-79
2022/07/13 00:56:29;;;;;;;;;33.75;30.50;;;;;34.00;23.63;101676.97;5104653;27;45430;-79
2022/07/13 00:58:57;;;;;;;;;35.75;29.25;;;;;33.78;23.91;101677.50;5116826;27;45526;-79
2022/07/13 01:01:22;;;;;;;;;38.50;31.25;;;;;33.83;23.95;101671.34;5122294;27;46277;-79
2022/07/13 01:03:48;;;;;;;;;30.75;26.00;;;;;34.21;23.98;101672.84;5122322;27;45238;-79
2022/07/13 01:06:14;;;;;;;;;36.00;28.00;;;;;34.13;23.67;101671.28;5122793;27;45469;-79
2022/07/13 01:08:39;;;;;;;;;27.50;25.50;;;;;34.51;23.47;101668.06;5121987;27;45511;-78
2022/07/13 01:11:06;;;;;;;;;28.75;28.75;;;;;34.17;23.57;101672.47;5120952;27;45265;-79
2022/07/13 01:13:33;;;;;;;;;25.00;22.50;;;;;34.07;24.04;101669.47;5122238;27;45486;-79
2022/07/13 01:15:58;;;;;;;;;24.00;21.00;;;;;33.93;23.92;101670.78;5123183;27;45426;-79
2022/07/13 01:18:24;;;;;;;;;22.25;19.25;;;;;33.94;23.84;101669.72;5119526;27;45415;-78
2022/07/13 01:20:50;;;;;;;;;17.00;16.00;;;;;33.88;23.80;101671.47;5121696;27;45382;-78
2022/07/13 01:23:17;;;;;;;;;22.00;19.00;;;;;33.81;24.15;101668.00;5119770;27;46827;-78
2022/07/13 01:25:43;;;;;;;;;22.00;18.00;;;;;33.83;24.03;101665.88;5122498;27;45411;-78
2022/07/13 01:28:08;;;;;;;;;14.75;14.25;;;;;33.76;23.80;101670.63;5120760;27;45321;-79
2022/07/13 01:30:34;;;;;;;;;22.00;17.25;;;;;33.82;24.25;101672.41;5104167;27;47462;-78
2022/07/13 01:33:00;;;;;;;;;21.00;15.75;;;;;33.83;24.02;101674.09;5118292;27;45234;-78
2022/07/13 01:35:25;;;;;;;;;19.75;15.50;;;;;33.76;24.27;101671.47;5121007;27;45312;-79
2022/07/13 01:37:53;;;;;;;;;20.00;15.75;;;;;33.66;24.54;101665.69;5119276;27;45551;-79
2022/07/13 01:40:19;;;;;;;;;13.75;12.75;;;;;33.70;23.96;101663.28;5122623;27;45358;-79
2022/07/13 01:42:46;;;;;;;;;13.50;13.00;;;;;33.81;23.93;101659.78;5121584;27;45415;-78
2022/07/13 01:45:14;;;;;;;;;15.00;11.75;;;;;33.80;23.78;101663.59;5100021;27;45338;-79
2022/07/13 01:47:41;;;;;;;;;13.75;11.50;;;;;33.81;23.99;101657.03;5119092;27;45250;-79
2022/07/13 01:50:10;;;;;;;;;19.50;12.25;;;;;33.81;24.10;101657.03;5121364;27;45228;-78
2022/07/13 01:52:36;;;;;;;;;15.50;12.00;;;;;33.78;24.02;101658.34;5108731;27;45625;-78
2022/07/13 01:55:05;;;;;;;;;17.50;14.00;;;;;33.85;23.91;101658.25;5121620;27;45452;-79
2022/07/13 01:57:31;;;;;;;;;17.00;14.25;;;;;33.84;24.41;101659.31;5099934;27;45829;-78
2022/07/13 01:59:58;;;;;;;;;17.25;13.75;;;;;33.85;23.91;101658.25;5116550;27;47254;-78
2022/07/13 02:02:24;;;;;;;;;17.75;13.25;;;;;33.84;24.06;101662.06;5121137;27;45454;-78
2022/07/13 02:04:50;;;;;;;;;14.75;12.00;;;;;33.79;23.99;101649.06;5120241;27;45519;-78
2022/07/13 02:07:15;;;;;;;;;13.75;12.50;;;;;33.73;24.05;101647.25;5122331;27;45358;-79
2022/07/13 02:09:40;;;;;;;;;12.00;10.00;;;;;33.70;24.81;101649.59;5111078;27;46285;-78
2022/07/13 02:12:06;;;;;;;;;15.00;12.00;;;;;33.76;24.43;101648.69;5122002;27;45467;-78
2022/07/13 02:14:31;;;;;;;;;12.25;9.00;;;;;33.84;24.64;101647.53;5120906;27;45314;-78
2022/07/13 02:16:56;;;;;;;;;8.00;7.00;;;;;33.87;24.26;101644.31;5122227;27;45297;-78
2022/07/13 02:19:23;;;;;;;;;11.25;8.75;;;;;33.90;24.30;101641.09;5102907;27;47124;-79
2022/07/13 02:21:48;;;;;;;;;10.50;8.00;;;;;33.88;24.45;101640.47;5112300;27;45325;-78
2022/07/13 02:24:14;;;;;;;;;11.50;6.25;;;;;33.82;24.58;101645.00;5099472;27;45444;-79
2022/07/13 02:26:39;;;;;;;;;9.00;7.75;;;;;33.82;24.56;101638.69;5089378;27;45507;-78
2022/07/13 02:29:05;;;;;;;;;8.75;7.00;;;;;34.00;24.53;101642.19;5118188;27;46170;-78
2022/07/13 02:31:30;;;;;;;;;5.25;5.25;;;;;33.90;24.88;101632.88;5117511;27;45421;-78
2022/07/13 02:33:56;;;;;;;;;11.00;7.25;;;;;33.85;25.01;101632.75;5118486;27;45319;-78
2022/07/13 02:36:21;;;;;;;;;9.75;7.00;;;;;33.64;25.07;101636.84;5121772;27;45360;-78
2022/07/13 02:38:46;;;;;;;;;11.25;10.00;;;;;33.25;25.90;101635.50;5120871;27;45329;-78
2022/07/13 02:41:12;;;;;;;;;9.00;7.00;;;;;34.02;25.31;101639.22;5115872;27;46074;-78
2022/07/13 02:43:37;;;;;;;;;10.25;8.00;;;;;34.18;25.13;101628.38;5102120;27;45407;-78
2022/07/13 02:46:02;;;;;;;;;9.50;8.00;;;;;34.26;25.56;101629.94;5120207;27;45624;-78
2022/07/13 02:48:27;;;;;;;;;12.25;7.50;;;;;34.06;25.55;101623.94;5120511;27;45342;-78
2022/07/13 02:50:53;;;;;;;;;12.75;9.75;;;;;33.92;25.60;101628.81;5114466;27;45334;-78
2022/07/13 02:53:18;;;;;;;;;11.00;8.00;;;;;33.73;25.76;101621.72;5116424;27;45459;-78
2022/07/13 02:55:43;;;;;;;;;8.00;8.00;;;;;33.75;26.25;101628.69;5117431;27;46181;-77
2022/07/13 02:58:09;;;;;;;;;8.00;7.00;;;;;33.60;26.96;101632.91;5121225;27;45420;-78
2022/07/13 03:00:34;;;;;;;;;11.25;8.25;;;;;34.08;26.49;101628.13;5119499;27;45413;-78
2022/07/13 03:02:59;;;;;;;;;8.00;7.25;;;;;34.02;26.72;101626.34;5118402;27;45432;-78
2022/07/13 03:05:25;;;;;;;;;9.00;7.00;;;;;33.76;26.93;101632.25;5120544;27;45428;-78
2022/07/13 03:07:51;;;;;;;;;9.25;7.75;;;;;33.71;26.93;101632.91;5101823;27;47934;-78
2022/07/13 03:10:16;;;;;;;;;8.00;8.00;;;;;33.61;26.96;101629.91;5102439;27;45437;-78
2022/07/13 03:12:42;;;;;;;;;6.00;6.00;;;;;33.25;27.52;101636.34;5116050;27;45449;-79
2022/07/13 03:15:07;;;;;;;;;5.00;5.00;;;;;33.85;26.83;101625.38;5121281;27;45480;-78
2022/07/13 03:17:33;;;;;;;;;8.25;6.75;;;;;33.51;26.68;101631.56;5121152;27;45350;-78
2022/07/13 03:19:58;;;;;;;;;8.50;5.25;;;;;33.18;26.96;101623.78;5121069;27;45232;-78
2022/07/13 03:22:24;;;;;;;;;7.75;6.25;;;;;33.70;27.22;101630.41;5114234;27;45235;-78
2022/07/13 03:24:49;;;;;;;;;7.75;7.75;;;;;33.81;26.56;101629.63;5102328;27;46291;-78
2022/07/13 03:27:15;;;;;;;;;6.00;6.00;;;;;33.76;26.36;101635.84;5102418;27;47194;-78
2022/07/13 03:29:41;;;;;;;;;7.00;6.00;;;;;33.64;26.80;101634.94;5098880;27;45370;-78
2022/07/13 03:32:06;;;;;;;;;7.25;6.50;;;;;33.85;26.22;101625.38;5121198;27;45351;-78
2022/07/13 03:34:31;;;;;;;;;7.25;5.75;;;;;33.78;26.51;101624.63;5098628;27;45711;-79
2022/07/13 03:36:57;;;;;;;;;7.75;7.75;;;;;33.81;26.40;101637.84;5112183;27;46345;-78
2022/07/13 03:39:22;;;;;;;;;8.00;6.50;;;;;33.88;26.20;101629.53;5117464;27;45338;-78
2022/07/13 03:41:48;;;;;;;;;9.50;8.75;;;;;33.94;26.62;101631.34;5118669;27;45373;-78
2022/07/13 03:44:14;;;;;;;;;6.50;6.00;;;;;33.12;27.39;101632.94;5120101;27;45306;-78
2022/07/13 03:46:40;;;;;;;;;11.50;7.50;;;;;32.78;27.77;101632.50;5120809;27;45385;-78
2022/07/13 03:49:05;;;;;;;;;7.25;7.25;;;;;32.76;27.85;101634.66;5096613;27;45534;-78
2022/07/13 03:51:30;;;;;;;;;6.75;6.75;;;;;32.93;27.09;101623.91;5099176;27;45267;-78
2022/07/13 03:53:56;;;;;;;;;6.25;5.50;;;;;32.98;26.97;101624.88;5104347;27;45308;-78
2022/07/13 03:56:23;;;;;;;;;7.00;7.00;;;;;32.75;27.13;101637.59;5116429;27;62653;-78
2022/07/13 03:58:49;;;;;;;;;8.00;8.00;;;;;32.90;26.69;101624.38;5118467;27;45206;-78
2022/07/13 04:01:16;;;;;;;;;9.00;7.75;;;;;33.01;26.95;101632.66;5115832;27;45156;-78
2022/07/13 04:03:42;;;;;;;;;8.00;8.00;;;;;32.83;26.72;101638.13;5119859;27;45515;-78
2022/07/13 04:06:07;;;;;;;;;11.50;6.00;;;;;32.88;27.06;101634.69;5120374;27;47701;-78
2022/07/13 04:08:32;;;;;;;;;8.25;7.00;;;;;33.15;26.57;101638.75;5120282;27;45387;-78
2022/07/13 04:10:58;;;;;;;;;7.50;5.50;;;;;33.12;26.17;101641.97;5118308;27;45452;-78
2022/07/13 04:13:24;;;;;;;;;8.00;7.00;;;;;33.24;26.14;101645.63;5123252;27;45463;-78
2022/07/13 04:15:49;;;;;;;;;10.00;7.00;;;;;33.24;26.19;101642.88;5122665;27;47972;-78
2022/07/13 04:18:14;;;;;;;;;8.00;6.75;;;;;33.19;26.04;101640.00;5123699;27;45410;-78
2022/07/13 04:20:40;;;;;;;;;6.75;5.00;;;;;32.99;26.20;101636.66;5104610;27;45578;-78
2022/07/13 04:23:05;;;;;;;;;9.75;6.25;;;;;33.06;26.11;101634.69;5116553;27;45329;-78
2022/07/13 04:25:31;;;;;;;;;9.25;6.00;;;;;33.17;26.03;101639.38;5122006;27;46144;-78
2022/07/13 04:27:56;;;;;;;;;5.00;4.25;;;;;33.28;25.80;101637.78;5123469;27;45400;-78
2022/07/13 04:30:21;;;;;;;;;7.25;6.25;;;;;33.19;25.65;101631.78;5121920;27;45505;-78
2022/07/13 04:32:47;;;;;;;;;6.25;5.00;;;;;33.29;25.91;101637.56;5122956;27;45324;-78
2022/07/13 04:35:12;;;;;;;;;6.25;5.00;;;;;33.13;25.99;101634.59;5122709;27;46289;-78
2022/07/13 04:37:37;;;;;;;;;6.00;5.25;;;;;33.08;26.11;101627.91;5116500;27;45418;-78
2022/07/13 04:40:03;;;;;;;;;5.00;4.00;;;;;33.08;25.61;101633.38;5123404;27;45402;-78
2022/07/13 04:42:28;;;;;;;;;7.00;5.00;;;;;32.97;25.94;101628.69;5121797;27;45849;-78
2022/07/13 04:44:54;;;;;;;;;5.50;4.25;;;;;33.01;25.64;101627.16;5119507;27;48399;-79
2022/07/13 04:47:19;;;;;;;;;5.00;3.00;;;;;33.14;25.63;101626.16;5103004;27;45569;-78
2022/07/13 04:49:44;;;;;;;;;8.00;5.00;;;;;33.07;25.61;101626.25;5123450;27;45534;-78
2022/07/13 04:52:10;;;;;;;;;6.25;4.50;;;;;33.18;25.48;101626.53;5117258;27;45582;-78
2022/07/13 04:54:35;;;;;;;;;3.75;3.75;;;;;33.11;25.48;101628.53;5104048;27;47072;-78
2022/07/13 04:57:01;;;;;;;;;7.00;5.00;;;;;33.18;25.47;101638.31;5117593;27;45315;-78
2022/07/13 04:59:26;;;;;;;;;12.00;5.50;;;;;33.23;25.43;101632.19;5122468;27;45332;-78
2022/07/13 05:01:53;;;;;;;;;6.25;5.50;;;;;33.20;25.70;101627.97;5101504;27;45574;-78
2022/07/13 05:04:18;;;;;;;;;6.50;5.00;;;;;33.22;25.55;101630.53;5116755;27;46161;-78
2022/07/13 05:06:44;;;;;;;;;6.50;6.25;;;;;33.17;26.00;101631.16;5118821;27;45449;-78
2022/07/13 05:09:09;;;;;;;;;8.50;7.00;;;;;33.32;25.92;101630.81;5102994;27;45592;-78
2022/07/13 05:11:34;;;;;;;;;9.50;6.75;;;;;33.37;25.88;101636.41;5123055;27;45416;-78
2022/07/13 05:14:00;;;;;;;;;6.75;6.50;;;;;33.66;26.44;101634.72;5120659;27;46031;-77
2022/07/13 05:16:25;;;;;;;;;11.25;7.75;;;;;34.47;25.73;101626.59;5097401;27;45440;-78
2022/07/13 05:18:50;;;;;;;;;9.75;7.25;;;;;34.20;26.22;101635.53;5117672;27;45471;-78
2022/07/13 05:21:16;;;;;;;;;10.50;10.25;;;;;34.24;26.14;101643.03;5123134;27;45408;-78
2022/07/13 05:23:41;;;;;;;;;12.00;8.25;;;;;34.45;26.09;101636.97;5110061;27;46209;-78
2022/07/13 05:26:07;;;;;;;;;7.50;6.50;;;;;34.42;26.35;101634.69;5118882;27;45347;-78
2022/07/13 05:28:32;;;;;;;;;12.50;7.50;;;;;34.80;25.73;101633.34;5114970;27;45989;-78
2022/07/13 05:30:58;;;;;;;;;9.00;8.75;;;;;34.17;26.78;101643.13;5122640;27;45163;-78
2022/07/13 05:33:24;;;;;;;;;9.00;8.25;;;;;34.45;26.74;101636.97;5104458;27;48150;-78
2022/07/13 05:35:49;;;;;;;;;10.00;9.00;;;;;34.63;26.35;101638.72;5122436;27;45213;-78
2022/07/13 05:38:15;;;;;;;;;13.00;8.00;;;;;34.31;27.09;101646.53;5115229;27;45231;-78
2022/07/13 05:40:40;;;;;;;;;11.50;7.75;;;;;34.17;27.13;101640.41;5119438;27;45305;-78
2022/07/13 05:43:06;;;;;;;;;7.00;6.75;;;;;34.54;26.65;101641.00;5100294;27;47030;-78
2022/07/13 05:45:31;;;;;;;;;13.00;7.75;;;;;34.47;26.72;101644.97;5119245;27;45371;-78
2022/07/13 05:47:57;;;;;;;;;9.00;7.75;;;;;34.36;26.52;101645.78;5120408;27;45317;-78
2022/07/13 05:50:22;;;;;;;;;9.75;8.50;;;;;34.36;26.54;101646.63;5119055;27;45479;-79
2022/07/13 05:52:47;;;;;;;;;10.50;8.00;;;;;34.36;26.64;101640.31;5117100;27;45457;-78
2022/07/13 05:55:13;;;;;;;;;7.75;7.50;;;;;34.49;26.64;101643.66;5103287;27;45575;-78
2022/07/13 05:57:39;;;;;;;;;10.00;8.25;;;;;34.60;26.75;101646.63;5121577;27;45384;-78
2022/07/13 06:00:10;;;;;;;;;13.50;10.00;;;;;34.29;26.78;101648.66;5117313;27;45391;-79
2022/07/13 06:02:35;;;;;;;;;7.75;7.75;;;;;34.64;26.26;101642.31;5110288;27;46401;-78
2022/07/13 06:05:01;;;;;;;;;9.75;7.00;;;;;34.72;26.50;101648.25;5120273;27;45223;-78
2022/07/13 06:07:26;;;;;;;;;9.75;6.00;;;;;34.67;26.20;101648.16;5119139;27;45402;-79
2022/07/13 06:09:52;;;;;;;;;7.00;5.50;;;;;34.84;26.09;101643.63;5119715;27;45570;-78
2022/07/13 06:12:18;;;;;;;;;9.50;9.00;;;;;35.39;26.28;101645.84;5121393;27;45522;-78
2022/07/13 06:14:43;;;;;;;;;9.75;7.75;;;;;35.04;25.72;101654.19;5093694;27;45470;-78
2022/07/13 06:17:08;;;;;;;;;10.00;8.00;;;;;34.88;25.93;101654.94;5122071;27;45473;-78
2022/07/13 06:19:34;;;;;;;;;8.25;8.00;;;;;34.89;25.93;101642.88;5121466;27;45670;-78
2022/07/13 06:21:59;;;;;;;;;10.00;7.25;;;;;34.93;26.19;101646.81;5121421;27;46549;-78
2022/07/13 06:24:26;;;;;;;;;8.00;8.00;;;;;34.97;26.36;101649.88;5118611;27;45688;-78
2022/07/13 06:26:51;;;;;;;;;12.50;9.00;;;;;34.94;25.95;101648.50;5121477;27;45482;-78
2022/07/13 06:29:17;;;;;;;;;8.00;7.75;;;;;35.00;26.31;101649.41;5121344;27;45455;-78
2022/07/13 06:31:42;;;;;;;;;7.25;6.75;;;;;35.14;26.23;101646.16;5114925;27;46112;-78
2022/07/13 06:34:07;;;;;;;;;8.25;8.25;;;;;35.12;26.12;101640.06;5120578;27;45398;-78
2022/07/13 06:36:34;;;;;;;;;12.25;7.50;;;;;35.24;25.76;101651.03;5121054;27;45477;-78
2022/07/13 06:39:00;;;;;;;;;9.25;6.25;;;;;35.00;26.86;101650.25;5114208;27;45314;-78
2022/07/13 06:41:26;;;;;;;;;10.25;10.25;;;;;35.34;26.31;101647.63;5101942;27;46941;-79
2022/07/13 06:43:51;;;;;;;;;10.50;10.50;;;;;35.58;25.93;101649.22;5120456;27;45548;-80
2022/07/13 06:46:16;;;;;;;;;9.50;9.25;;;;;35.78;26.13;101649.59;5101628;27;45505;-79
2022/07/13 06:48:42;;;;;;;;;9.75;9.25;;;;;35.63;26.03;101643.78;5118318;27;45397;-80
2022/07/13 06:51:07;;;;;;;;;10.75;10.00;;;;;35.59;25.58;101648.97;5121016;27;45465;-80
2022/07/13 06:53:33;;;;;;;;;12.00;8.50;;;;;35.64;25.90;101643.53;5101489;27;45539;-79
2022/07/13 06:55:58;;;;;;;;;12.75;10.75;;;;;35.67;25.83;101646.88;5102264;27;45389;-80
2022/07/13 06:58:24;;;;;;;;;10.00;8.00;;;;;35.63;25.45;101644.63;5117289;27;45522;-80
2022/07/13 07:00:49;;;;;;;;;13.25;8.00;;;;;35.83;25.45;101649.69;5114769;27;46528;-79
2022/07/13 07:03:14;;;;;;;;;12.00;7.50;;;;;35.99;24.37;101651.59;5092029;27;47945;-78
2022/07/13 07:05:40;;;;;;;;;13.00;6.00;;;;;36.18;24.51;101654.91;5118712;27;45636;-79
2022/07/13 07:08:05;;;;;;;;;10.00;5.50;;;;;36.16;23.64;101643.31;5116609;27;45535;-78
2022/07/13 07:10:31;;;;;;;;;3.50;3.50;;;;;36.14;22.89;101664.75;5107290;27;46355;-80
2022/07/13 07:12:56;;;;;;;;;8.00;5.75;;;;;36.12;22.69;101652.34;5119415;27;45327;-80
2022/07/13 07:15:23;;;;;;;;;5.25;5.00;;;;;37.00;22.03;101655.00;5119862;27;45496;-80
2022/07/13 07:17:49;;;;;;;;;6.00;4.25;;;;;37.19;21.76;101660.22;5118413;27;45349;-79
2022/07/13 07:20:16;;;;;;;;;4.50;3.75;;;;;39.19;21.35;101650.13;5114976;27;45413;-80
2022/07/13 07:22:43;;;;;;;;;5.25;3.00;;;;;41.29;20.02;101639.34;5116056;27;45547;-80
2022/07/13 07:25:09;;;;;;;;;7.75;5.50;;;;;43.62;18.58;101639.56;5119041;27;45432;-79
2022/07/13 07:27:35;;;;;;;;;6.00;4.00;;;;;46.12;17.22;101644.25;5120056;27;45508;-79
2022/07/13 07:30:00;;;;;;;;;5.75;5.75;;;;;47.53;15.19;101643.97;5113685;27;46389;-79
2022/07/13 07:32:26;;;;;;;;;6.00;2.75;;;;;46.70;15.21;101655.22;5119315;27;45445;-80
2022/07/13 07:34:52;;;;;;;;;4.50;3.00;;;;;45.94;15.20;101656.47;5113432;27;45816;-81
2022/07/13 07:37:20;;;;;;;;;9.25;5.50;;;;;45.78;15.88;101656.84;5114937;27;45879;-81
2022/07/13 07:39:46;;;;;;;;;2.75;2.50;;;;;45.20;14.83;101654.06;5119817;27;45352;-81
2022/07/13 07:42:12;;;;;;;;;5.75;4.00;;;;;44.25;15.08;101655.72;5119372;27;45766;-80
2022/07/13 07:44:37;;;;;;;;;3.75;3.25;;;;;43.05;15.90;101662.09;5119390;27;45587;-80
2022/07/13 07:47:06;;;;;;;;;4.00;2.50;;;;;42.29;16.35;101649.06;5097970;27;45553;-80
2022/07/13 07:49:32;;;;;;;;;4.50;4.50;;;;;41.81;17.15;101649.78;5111774;27;45768;-80
2022/07/13 07:51:58;;;;;;;;;5.25;4.00;;;;;41.47;17.15;101651.69;5099520;27;46335;-79
2022/07/13 07:54:24;;;;;;;;;5.00;5.00;;;;;41.10;17.17;101649.41;5101238;27;45712;-79
2022/07/13 07:56:49;;;;;;;;;8.75;4.75;;;;;41.05;17.59;101650.28;5092643;27;45535;-79
2022/07/13 07:59:15;;;;;;;;;5.75;4.25;;;;;41.38;17.94;101645.09;5114648;27;47406;-80
2022/07/13 08:01:41;;;;;;;;;6.25;4.25;;;;;42.10;17.41;101651.78;5119654;27;45596;-79
2022/07/13 08:04:07;;;;;;;;;6.75;4.00;;;;;41.91;17.24;101648.03;5119555;27;45305;-79
2022/07/13 08:06:33;;;;;;;;;5.00;5.00;;;;;41.48;17.43;101645.03;5119370;27;45466;-80
2022/07/13 08:08:58;;;;;;;;;5.25;5.25;;;;;41.09;17.69;101642.22;5119535;27;45484;-80
2022/07/13 08:11:24;;;;;;;;;7.50;5.00;;;;;40.73;17.74;101638.78;5100674;27;46164;-80
2022/07/13 08:13:51;;;;;;;;;8.75;6.00;;;;;40.53;17.90;101647.97;5119466;27;45574;-80
2022/07/13 08:16:17;;;;;;;;;5.75;4.75;;;;;40.13;18.82;101642.50;5118102;27;45468;-80
2022/07/13 08:18:43;;;;;;;;;4.00;4.00;;;;;39.91;18.81;101637.25;5099532;27;47390;-79
2022/07/13 08:21:09;;;;;;;;;3.50;3.50;;;;;39.90;18.47;101641.13;5119504;27;45412;-79
2022/07/13 08:23:52;;;;;;;;;3.25;3.25;;;;;40.27;18.05;101638.91;5120213;27;45371;-78
2022/07/13 08:26:19;;;;;;;;;4.50;3.25;;;;;40.52;18.58;101638.00;5120311;27;45263;-80
2022/07/13 08:28:45;;;;;;;;;5.25;3.25;;;;;40.60;19.03;101644.91;5120348;27;45237;-81
2022/07/13 08:31:11;;;;;;;;;3.50;3.00;;;;;40.64;18.36;101637.69;5119560;27;45311;-80
2022/07/13 08:39:05;;;;;;;;;3.00;3.00;;;;;39.70;18.40;101647.47;5122778;27;45789;-80
2022/07/13 08:41:32;;;;;;;;;7.00;3.50;;;;;39.71;18.33;101643.59;5117957;27;45418;-81
2022/07/13 08:43:58;;;;;;;;;7.50;4.75;;;;;40.95;18.78;101642.03;5111898;27;45436;-81
2022/07/13 08:46:24;;;;;;;;;5.25;4.25;;;;;44.68;16.75;101636.78;5119222;27;45306;-79
2022/07/13 08:48:50;;;;;;;;;3.00;3.00;;;;;48.24;13.77;101638.72;5118078;27;46265;-79
2022/07/13 08:51:19;;;;;;;;;5.00;3.50;;;;;49.53;12.69;101634.25;5119043;27;46314;-78
2022/07/13 08:53:44;;;;;;;;;3.25;3.00;;;;;49.27;11.77;101631.63;5111198;27;45639;-79
2022/07/13 08:56:10;;;;;;;;;7.75;5.25;;;;;50.89;12.10;101639.34;5101922;27;45819;-79
2022/07/13 08:58:37;;;;;;;;;5.25;3.50;;;;;53.14;11.19;101635.56;5119127;27;46383;-79
2022/07/13 09:01:02;;;;;;;;;5.00;4.00;;;;;54.63;9.61;101635.50;5122663;27;45568;-79
2022/07/13 09:03:34;;;;;;;;;4.25;3.50;;;;;56.14;10.34;101634.00;5122721;27;45494;-78
2022/07/13 09:05:59;;;;;;;;;3.00;2.25;;;;;58.09;8.54;101635.63;5122423;27;45420;-78
2022/07/13 09:08:24;;;;;;;;;4.00;3.75;;;;;58.35;8.08;101636.41;5122573;27;45431;-79
2022/07/13 09:10:55;;;;;;;;;4.00;2.75;;;;;59.12;7.63;101632.53;5101581;27;45444;-78
2022/07/13 09:13:44;;;;;;;;;2.75;2.50;;;;;60.22;7.24;101626.03;5103348;27;45332;-79
2022/07/13 09:16:23;;;;;;;;;3.50;3.50;;;;;61.19;7.02;101625.69;5122933;27;45206;-79
2022/07/13 09:18:51;;;;;;;;;3.50;3.50;;;;;60.16;7.01;101629.75;5122480;27;45361;-80
2022/07/13 09:21:18;;;;;;;;;7.25;4.00;;;;;60.63;7.10;101635.78;5121401;27;45491;-80
2022/07/13 09:23:48;;;;;;;;;6.00;2.75;;;;;59.82;6.91;101626.78;5118472;27;45310;-82
2022/07/13 09:26:14;;;;;;;;;3.00;2.50;;;;;59.47;7.02;101627.84;5120444;27;45483;-83
2022/07/13 09:28:47;;;;;;;;;3.00;3.00;;;;;59.62;7.33;101626.53;5106017;27;46981;-84
2022/07/13 09:31:13;;;;;;;;;2.50;2.50;;;;;60.02;7.17;101621.31;5125167;27;45531;-81
2022/07/13 09:33:41;;;;;;;;;6.75;3.75;;;;;60.29;7.02;101619.41;5118069;27;46069;-80
2022/07/13 09:36:11;;;;;;;;;3.25;2.75;;;;;60.30;6.57;101614.53;5120355;27;45547;-80
2022/07/13 09:38:47;;;;;;;;;4.75;3.00;;;;;59.88;6.35;101619.38;5119920;27;45349;-78
2022/07/13 09:41:18;;;;;;;;;4.25;4.25;;;;;59.99;7.51;101619.31;5120509;27;45616;-77
2022/07/13 09:46:37;;;;;;;;;4.50;3.25;;;;;60.34;6.80;101618.16;5120659;27;45479;-77
2022/07/13 09:49:03;;;;;;;;;4.00;4.00;;;;;60.87;6.25;101615.50;5102221;27;48354;-77
2022/07/13 09:51:29;;;;;;;;;5.75;3.50;;;;;61.33;6.39;101617.72;5121398;27;45531;-77
2022/07/13 09:54:00;;;;;;;;;3.75;2.25;;;;;61.82;6.10;101614.50;5122653;27;45589;-78
2022/07/13 09:56:28;;;;;;;;;3.00;3.00;;;;;61.44;6.51;101614.69;5113803;27;45468;-78
2022/07/13 09:58:53;;;;;;;;;2.00;2.00;;;;;61.87;5.77;101614.81;5122424;27;46680;-78
2022/07/13 10:01:19;;;;;;;;;4.50;3.00;;;;;62.23;6.40;101612.13;5122429;27;45226;-78
2022/07/13 10:03:45;;;;;;;;;5.50;3.00;;;;;62.28;5.89;101605.91;5122629;27;45210;-78
2022/07/13 10:06:12;;;;;;;;;2.50;2.50;;;;;62.63;6.89;101610.09;5122404;27;45337;-78
2022/07/13 10:08:41;;;;;;;;;3.00;2.75;;;;;62.58;5.53;101613.47;5122507;27;45424;-78
2022/07/13 10:11:08;;;;;;;;;3.75;3.75;;;;;62.77;5.75;101614.72;5121636;27;45451;-78
2022/07/13 10:13:34;;;;;;;;;4.00;3.00;;;;;62.41;6.04;101609.69;5122580;27;45433;-78
2022/07/13 10:15:59;;;;;;;;;3.00;3.00;;;;;62.75;6.20;101611.47;5121864;27;45310;-78
2022/07/13 10:18:32;;;;;;;;;2.00;1.25;;;;;62.46;5.89;101617.00;5122341;27;45318;-78
2022/07/13 10:21:16;;;;;;;;;3.50;3.50;;;;;62.09;5.99;101608.72;5122222;27;45560;-78
2022/07/13 10:23:41;;;;;;;;;5.00;3.75;;;;;62.02;6.17;101604.72;5122261;27;45292;-78
2022/07/13 10:26:25;;;;;;;;;4.00;2.50;;;;;61.13;5.91;101610.25;5121981;27;45377;-80
2022/07/13 10:29:06;;;;;;;;;3.50;3.50;;;;;60.27;6.00;101609.69;5122168;27;45466;-81
2022/07/13 10:31:33;;;;;;;;;4.00;2.50;;;;;59.44;6.64;101605.88;5094067;27;45359;-78
2022/07/13 10:34:01;;;;;;;;;3.00;3.00;;;;;58.89;7.46;101602.94;5119875;27;45494;-80
2022/07/13 10:36:49;;;;;;;;;4.75;4.00;;;;;57.78;7.90;101599.44;5122166;27;45317;-79
2022/07/13 10:39:15;;;;;;;;;3.50;3.50;;;;;57.11;7.36;101594.44;5103199;27;47446;-78
2022/07/13 10:41:59;;;;;;;;;3.00;3.00;;;;;55.05;8.88;101601.28;5120303;27;45359;-79
2022/07/13 10:44:42;;;;;;;;;1.75;1.50;;;;;53.73;9.05;101595.59;5121902;27;45545;-79
2022/07/13 10:47:12;;;;;;;;;2.75;2.75;;;;;52.73;10.32;101591.94;5121810;27;45390;-79
2022/07/13 10:49:51;;;;;;;;;3.25;3.25;;;;;51.97;9.81;101591.34;5121770;27;46035;-79
2022/07/13 10:52:19;;;;;;;;;8.50;3.50;;;;;51.32;10.68;101592.75;5120229;27;45283;-79
2022/07/13 10:55:03;;;;;;;;;6.50;2.75;;;;;50.48;11.20;101597.38;5121836;27;45337;-79
2022/07/13 10:57:30;;;;;;;;;2.50;2.50;;;;;50.32;10.41;101596.47;5120096;27;45421;-79
2022/07/13 11:00:18;;;;;;;;;3.50;3.25;;;;;49.63;11.70;101600.09;5121434;27;46151;-78
2022/07/13 11:02:47;;;;;;;;;4.25;3.00;;;;;49.44;11.24;101589.41;5120344;27;45305;-79
2022/07/13 11:05:15;;;;;;;;;2.25;2.25;;;;;48.97;12.23;101591.63;5121628;27;45428;-79
2022/07/13 11:07:43;;;;;;;;;1.00;0.25;;;;;48.51;12.39;101586.97;5121378;27;45487;-79
2022/07/13 11:10:22;;;;;;;;;6.25;6.25;;;;;48.13;12.71;101592.59;5121135;27;45404;-79
2022/07/13 11:12:58;;;;;;;;;4.25;3.75;;;;;47.94;12.28;101587.38;5102851;27;45285;-79
2022/07/13 11:15:24;;;;;;;;;3.50;3.00;;;;;47.72;12.78;101594.03;5121838;27;45425;-79
2022/07/13 11:18:13;;;;;;;;;2.75;2.00;;;;;47.19;13.20;101575.66;5121321;27;45503;-79
2022/07/13 11:20:55;;;;;;;;;4.50;3.00;;;;;46.75;13.34;101587.97;5120957;27;46724;-79
2022/07/13 11:26:13;;;;;;;;;2.00;2.00;;;;;46.31;13.05;101583.41;5121337;27;45211;-79
2022/07/13 11:28:50;;;;;;;;;1.75;1.75;;;;;46.32;12.84;101571.09;5111771;27;45279;-79
2022/07/13 11:31:16;;;;;;;;;3.50;3.50;;;;;46.25;13.22;101570.75;5119708;27;46406;-79